AirNav   Air Wisconsin Up To $57,000 Bonus
 
 798 users online  

0MO4 Bert Walter Berkowitz Heliport
Kansas City, Missouri, USA

GOING TO KANSAS CITY?


FAA INFORMATION EFFECTIVE 07 NOVEMBER 2019

Location

FAA Identifier: 0MO4
Lat/Long: 39-05-01.1600N 094-34-36.9100W
39-05.019333N 094-34.615167W
39.0836556,-94.5769194
(estimated)
Elevation: 890 ft. / 271 m (estimated)
Variation: 05E (1985)
Time zone: UTC -6 (UTC -5 during Daylight Saving Time)
Zip code: 64108

Heliport Operations

Heliport use: Private use. Permission required prior to landing
Activation date: 06/1991
Control tower: no
ARTCC: KANSAS CITY CENTER
FSS: COLUMBIA FLIGHT SERVICE STATION
Attendance: CONTINUOUS
Wind indicator: yes
Segmented circle: no
Lights: FOR FLOOD LGTS CALL 816-556-3133.

Heliport Communications

WX ASOS at MKC (2.5 nm N): PHONE 816-329-2843
WX ASOS at LXT (12 nm SE): 124.175 (816-347-9807)
WX ASOS at MCI (14 nm NW): PHONE 816-329-2808
WX ASOS at OJC (16 nm SW): PHONE 913-780-6969
WX AWOS-3 at GPH (19 nm NE): 120.275 (816-407-3399)

Nearby radio navigation aids

VOR radial/distance  VOR name  Freq  Var
MCIr143/14.2KANSAS CITY VORTAC113.2505E
ANXr261/20.9NAPOLEON VORTAC114.0007E

Heliport Services

Runway Information

Helipad H1

Dimensions: 18 x 18 ft. / 5 x 5 m
Surface: concrete
Runway edge lights: FLD
Latitude: 39-05.019333N
Longitude: 094-34.615167W
Elevation: 890.0 ft.
Traffic pattern: leftleft

Heliport Ownership and Management from official FAA records

Ownership: Publicly-owned
Owner: TRUMAN MEDICAL CENTER, INC.
2301 HOLMES
KANSAS CITY, MO 64108
Phone 816-556-3133
Manager: JACK L NICHOLS
2301 HOLMES
KANSAS CITY, MO 64108
Phone 816-556-3133

Additional Remarks

OWNER DESIRES HELIPAD NOT BE CHARTED.
FOR CD CTC KANSAS CITY APCH AT 816-329-2710.

Instrument Procedures

There are no published instrument procedures at 0MO4.

Some nearby airports with instrument procedures:

KMKC - Charles B Wheeler Downtown Airport (2 nm N)
KLXT - Lee's Summit Municipal Airport (12 nm SE)
KMCI - Kansas City International Airport (14 nm NW)
KOJC - Johnson County Executive Airport (16 nm SW)
3GV - East Kansas City Airport (17 nm E)
KGPH - Midwest National Air Center Airport (19 nm NE)
 
Loc | Ops | Rwys | IFR | FBO | Links
Com | Nav | Svcs | Stats | Notes

Kansas City Aviation Department
 
Area around 0MO4 (Bert Walter Berkowitz Heliport)
 
Road maps at: MapQuest Bing Google
 
Aerial photo
No photo
 
Sectional chart

 
Airport distance calculator
Flying to Bert Walter Berkowitz Heliport? Find the distance to fly.

From to 0MO4

Sunrise and sunset
Times for 15-Nov-2019
 Local
(UTC-6)
 Zulu
(UTC)
Morning civil twilight06:3412:34
Sunrise07:0213:02
Sunset17:0323:03
Evening civil twilight17:3223:32

Current date and time
Zulu (UTC)  16-Nov-2019 01:46:39
Local (UTC-6)  15-Nov-2019 19:46:39
 
METAR
KMKC 
2nm NW 
160054Z 13005KT 10SM CLR 09/M02 A3029 RMK AO2 SLP263 T00891022
KLXT 
12nm SE 
160053Z AUTO 14006KT 10SM CLR 07/M03 A3030 RMK AO2 SLP269 T00721028
KMCI 
15nm NW 
160053Z 14008KT 10SM CLR 05/M02 A3028 RMK AO2 SLP263 T00501017
KOJC 
16nm SW 
160053Z 13005KT 10SM CLR 06/M02 A3029 RMK AO2 SLP265 T00611022
KGPH 
19nm NE 
160135Z AUTO 00000KT 10SM CLR 06/M03 A3031 RMK AO2
TAF
KMKC 
2nm NW 
151736Z 1518/1618 18005KT P6SM FEW250 FM161500 15012KT P6SM SCT200
KMCI 
15nm NW 
151736Z 1518/1618 18005KT P6SM FEW250 FM161500 15012KT P6SM SCT200
NOTAMs
Click for the latest NOTAMs
NOTAMs are issued by the DoD/FAA and will open in a separate window not controlled by AirNav.

 

 
 

Would you like to see your business listed on this page?

 If your business provides an interesting product or service to pilots, flight crews, aircraft, or users of the Bert Walter Berkowitz Heliport, you should consider listing it here.  To start the listing process, click on the button below
 
Add a business
 

Other Pages about Bert Walter Berkowitz Heliport

Update a link
 
Copyright © AirNav, LLC. All rights reserved. Privacy Policy  Contact